sensor_id;sensor_type;location;lat;lon;timestamp;temperature;humidity
68842;SHT35;55849;48.482;2.332;2022-11-15T15:38:58;15.17;81.81
68842;SHT35;55849;48.482;2.332;2022-11-15T15:41:59;15.17;81.97
68842;SHT35;55849;48.482;2.332;2022-11-15T15:45:01;15.16;82.01
68842;SHT35;55849;48.482;2.332;2022-11-15T15:48:03;15.16;81.90
68842;SHT35;55849;48.482;2.332;2022-11-15T15:51:05;15.17;82.14
68842;SHT35;55849;48.482;2.332;2022-11-15T15:54:08;15.19;81.79
68842;SHT35;55849;48.482;2.332;2022-11-15T15:57:12;15.17;81.84
68842;SHT35;55849;48.482;2.332;2022-11-15T16:00:15;15.19;81.91
68842;SHT35;55849;48.482;2.332;2022-11-15T16:03:17;15.17;82.40
68842;SHT35;55849;48.482;2.332;2022-11-15T16:06:38;15.19;81.75
68842;SHT35;55849;48.482;2.332;2022-11-15T16:09:44;15.20;81.46
68842;SHT35;55849;48.482;2.332;2022-11-15T16:13:04;15.22;81.36
68842;SHT35;55849;48.482;2.332;2022-11-15T16:16:09;15.24;81.25
68842;SHT35;55849;48.482;2.332;2022-11-15T16:19:14;15.22;81.36
68842;SHT35;55849;48.482;2.332;2022-11-15T16:22:15;15.22;81.39
68842;SHT35;55849;48.482;2.332;2022-11-15T16:25:19;15.22;81.43
68842;SHT35;55849;48.482;2.332;2022-11-15T16:28:22;15.22;81.44
68842;SHT35;55849;48.482;2.332;2022-11-15T16:31:24;15.20;81.49
68842;SHT35;55849;48.482;2.332;2022-11-15T16:34:28;15.23;81.43
68842;SHT35;55849;48.482;2.332;2022-11-15T16:37:30;15.20;81.53
68842;SHT35;55849;48.482;2.332;2022-11-15T16:40:33;15.20;82.60
68842;SHT35;55849;48.482;2.332;2022-11-15T16:43:36;15.17;82.16
68842;SHT35;55849;48.482;2.332;2022-11-15T16:46:40;15.19;82.24
68842;SHT35;55849;48.482;2.332;2022-11-15T16:49:43;15.17;81.81
68842;SHT35;55849;48.482;2.332;2022-11-15T16:52:45;15.20;81.70
68842;SHT35;55849;48.482;2.332;2022-11-15T16:55:48;15.23;81.53
68842;SHT35;55849;48.482;2.332;2022-11-15T16:58:50;15.23;81.37
68842;SHT35;55849;48.482;2.332;2022-11-15T17:01:52;15.19;81.44
68842;SHT35;55849;48.482;2.332;2022-11-15T17:04:54;15.23;81.58
68842;SHT35;55849;48.482;2.332;2022-11-15T17:07:55;15.24;81.52
68842;SHT35;55849;48.482;2.332;2022-11-15T17:10:58;15.24;81.32
68842;SHT35;55849;48.482;2.332;2022-11-15T17:14:00;15.26;81.27
68842;SHT35;55849;48.482;2.332;2022-11-15T17:17:02;15.26;81.44
68842;SHT35;55849;48.482;2.332;2022-11-15T17:20:04;15.26;81.18
68842;SHT35;55849;48.482;2.332;2022-11-15T17:23:11;15.26;81.34
68842;SHT35;55849;48.482;2.332;2022-11-15T17:26:15;15.28;81.20
68842;SHT35;55849;48.482;2.332;2022-11-15T17:29:17;15.26;81.23
68842;SHT35;55849;48.482;2.332;2022-11-15T17:32:18;15.27;81.09
68842;SHT35;55849;48.482;2.332;2022-11-15T17:35:20;15.27;81.00
68842;SHT35;55849;48.482;2.332;2022-11-15T17:38:22;15.28;81.18
68842;SHT35;55849;48.482;2.332;2022-11-15T17:41:25;15.27;80.92
68842;SHT35;55849;48.482;2.332;2022-11-15T17:44:30;15.33;80.96
68842;SHT35;55849;48.482;2.332;2022-11-15T17:47:33;15.30;81.05
68842;SHT35;55849;48.482;2.332;2022-11-15T17:50:35;15.28;80.98
68842;SHT35;55849;48.482;2.332;2022-11-15T17:53:38;15.33;80.96
68842;SHT35;55849;48.482;2.332;2022-11-15T17:56:41;15.28;80.90
68842;SHT35;55849;48.482;2.332;2022-11-15T17:59:43;15.34;81.12
68842;SHT35;55849;48.482;2.332;2022-11-15T18:02:45;15.31;81.24
68842;SHT35;55849;48.482;2.332;2022-11-15T18:05:46;15.30;81.34
68842;SHT35;55849;48.482;2.332;2022-11-15T18:08:57;15.27;81.35
68842;SHT35;55849;48.482;2.332;2022-11-15T18:12:00;15.28;81.32
68842;SHT35;55849;48.482;2.332;2022-11-15T18:15:03;15.27;81.22
68842;SHT35;55849;48.482;2.332;2022-11-15T18:18:04;15.27;81.32
68842;SHT35;55849;48.482;2.332;2022-11-15T18:21:09;15.28;81.29
68842;SHT35;55849;48.482;2.332;2022-11-15T18:24:11;15.26;81.38
68842;SHT35;55849;48.482;2.332;2022-11-15T18:27:14;15.27;81.37
68842;SHT35;55849;48.482;2.332;2022-11-15T18:30:16;15.27;81.20
68842;SHT35;55849;48.482;2.332;2022-11-15T18:33:17;15.26;81.24
68842;SHT35;55849;48.482;2.332;2022-11-15T18:36:21;15.24;81.23
68842;SHT35;55849;48.482;2.332;2022-11-15T18:39:23;15.24;81.17
68842;SHT35;55849;48.482;2.332;2022-11-15T18:42:26;15.20;81.25
68842;SHT35;55849;48.482;2.332;2022-11-15T18:45:29;15.20;81.35
68842;SHT35;55849;48.482;2.332;2022-11-15T18:48:32;15.20;81.29
68842;SHT35;55849;48.482;2.332;2022-11-15T18:51:36;15.17;81.37
68842;SHT35;55849;48.482;2.332;2022-11-15T18:54:40;15.13;81.03
68842;SHT35;55849;48.482;2.332;2022-11-15T18:57:43;15.13;80.81
68842;SHT35;55849;48.482;2.332;2022-11-15T19:00:45;15.11;80.75
68842;SHT35;55849;48.482;2.332;2022-11-15T19:03:48;15.11;80.74
68842;SHT35;55849;48.482;2.332;2022-11-15T19:06:50;15.07;80.44
68842;SHT35;55849;48.482;2.332;2022-11-15T19:09:52;15.04;80.64
68842;SHT35;55849;48.482;2.332;2022-11-15T19:12:56;15.02;80.49
68842;SHT35;55849;48.482;2.332;2022-11-15T19:15:59;15.00;80.48
68842;SHT35;55849;48.482;2.332;2022-11-15T19:19:03;15.00;80.59
68842;SHT35;55849;48.482;2.332;2022-11-15T19:22:04;14.98;80.58
68842;SHT35;55849;48.482;2.332;2022-11-15T19:25:07;14.98;80.34
68842;SHT35;55849;48.482;2.332;2022-11-15T19:28:11;14.96;80.37
68842;SHT35;55849;48.482;2.332;2022-11-15T19:31:14;14.90;80.41
68842;SHT35;55849;48.482;2.332;2022-11-15T19:34:16;14.88;80.26
68842;SHT35;55849;48.482;2.332;2022-11-15T19:37:18;14.86;80.10
68842;SHT35;55849;48.482;2.332;2022-11-15T19:40:19;14.85;80.05
68842;SHT35;55849;48.482;2.332;2022-11-15T19:43:22;14.85;80.45
68842;SHT35;55849;48.482;2.332;2022-11-15T19:46:25;14.79;80.53
68842;SHT35;55849;48.482;2.332;2022-11-15T19:49:26;14.81;80.42
68842;SHT35;55849;48.482;2.332;2022-11-15T19:52:28;14.79;80.45
68842;SHT35;55849;48.482;2.332;2022-11-15T19:55:30;14.79;80.69
68842;SHT35;55849;48.482;2.332;2022-11-15T19:58:33;14.75;80.66
68842;SHT35;55849;48.482;2.332;2022-11-15T20:01:35;14.78;80.73
68842;SHT35;55849;48.482;2.332;2022-11-15T20:04:38;14.78;80.95
68842;SHT35;55849;48.482;2.332;2022-11-15T20:07:39;14.76;80.80
68842;SHT35;55849;48.482;2.332;2022-11-15T20:10:42;14.74;80.77
68842;SHT35;55849;48.482;2.332;2022-11-15T20:13:46;14.76;81.05
68842;SHT35;55849;48.482;2.332;2022-11-15T20:16:48;14.81;80.90
68842;SHT35;55849;48.482;2.332;2022-11-15T20:19:49;14.79;80.66
68842;SHT35;55849;48.482;2.332;2022-11-15T20:22:51;14.78;80.74
68842;SHT35;55849;48.482;2.332;2022-11-15T20:25:53;14.79;80.48
68842;SHT35;55849;48.482;2.332;2022-11-15T20:28:56;14.78;80.72
68842;SHT35;55849;48.482;2.332;2022-11-15T20:32:01;14.76;80.40
68842;SHT35;55849;48.482;2.332;2022-11-15T20:35:03;14.74;80.38
68842;SHT35;55849;48.482;2.332;2022-11-15T20:38:05;14.74;80.67
68842;SHT35;55849;48.482;2.332;2022-11-15T20:41:07;14.69;80.06
68842;SHT35;55849;48.482;2.332;2022-11-15T20:44:10;14.68;80.06
68842;SHT35;55849;48.482;2.332;2022-11-15T20:47:12;14.67;79.99
68842;SHT35;55849;48.482;2.332;2022-11-15T20:50:14;14.67;79.79
68842;SHT35;55849;48.482;2.332;2022-11-15T20:53:17;14.61;80.04
68842;SHT35;55849;48.482;2.332;2022-11-15T20:56:20;14.58;79.95
68842;SHT35;55849;48.482;2.332;2022-11-15T20:59:24;14.57;80.08
68842;SHT35;55849;48.482;2.332;2022-11-15T21:02:26;14.57;80.42
68842;SHT35;55849;48.482;2.332;2022-11-15T21:05:28;14.55;80.14
68842;SHT35;55849;48.482;2.332;2022-11-15T21:08:29;14.54;80.43
68842;SHT35;55849;48.482;2.332;2022-11-15T21:11:51;14.51;80.20
68842;SHT35;55849;48.482;2.332;2022-11-15T21:15:11;14.49;80.61
68842;SHT35;55849;48.482;2.332;2022-11-15T21:18:13;14.48;80.47
68842;SHT35;55849;48.482;2.332;2022-11-15T21:21:15;14.48;80.80
68842;SHT35;55849;48.482;2.332;2022-11-15T21:24:17;14.48;80.57
68842;SHT35;55849;48.482;2.332;2022-11-15T21:27:19;14.48;80.34
68842;SHT35;55849;48.482;2.332;2022-11-15T21:30:22;14.48;80.62
68842;SHT35;55849;48.482;2.332;2022-11-15T21:33:24;14.42;80.53
68842;SHT35;55849;48.482;2.332;2022-11-15T21:36:27;14.42;80.37
68842;SHT35;55849;48.482;2.332;2022-11-15T21:39:29;14.40;80.74
68842;SHT35;55849;48.482;2.332;2022-11-15T21:42:31;14.40;80.41
68842;SHT35;55849;48.482;2.332;2022-11-15T21:45:34;14.38;80.28
68842;SHT35;55849;48.482;2.332;2022-11-15T21:48:35;14.34;80.27
68842;SHT35;55849;48.482;2.332;2022-11-15T21:51:37;14.31;79.97
68842;SHT35;55849;48.482;2.332;2022-11-15T21:54:38;14.27;79.73
68842;SHT35;55849;48.482;2.332;2022-11-15T21:57:40;14.27;79.69
68842;SHT35;55849;48.482;2.332;2022-11-15T22:00:43;14.20;79.66
68842;SHT35;55849;48.482;2.332;2022-11-15T22:04:03;14.19;79.87
68842;SHT35;55849;48.482;2.332;2022-11-15T22:07:06;14.16;79.82
68842;SHT35;55849;48.482;2.332;2022-11-15T22:10:08;14.13;79.87
68842;SHT35;55849;48.482;2.332;2022-11-15T22:13:09;14.10;79.60
68842;SHT35;55849;48.482;2.332;2022-11-15T22:16:12;14.06;79.41
68842;SHT35;55849;48.482;2.332;2022-11-15T22:19:14;14.03;79.86
68842;SHT35;55849;48.482;2.332;2022-11-15T22:22:16;13.98;79.58
68842;SHT35;55849;48.482;2.332;2022-11-15T22:25:17;13.98;79.94
68842;SHT35;55849;48.482;2.332;2022-11-15T22:28:20;13.95;79.62
68842;SHT35;55849;48.482;2.332;2022-11-15T22:31:23;13.92;79.61
68842;SHT35;55849;48.482;2.332;2022-11-15T22:34:24;13.89;79.40
68842;SHT35;55849;48.482;2.332;2022-11-15T22:37:26;13.85;79.27
68842;SHT35;55849;48.482;2.332;2022-11-15T22:40:28;13.82;79.75
68842;SHT35;55849;48.482;2.332;2022-11-15T22:43:29;13.81;79.66
68842;SHT35;55849;48.482;2.332;2022-11-15T22:46:32;13.81;79.50
68842;SHT35;55849;48.482;2.332;2022-11-15T22:49:34;13.74;79.67
68842;SHT35;55849;48.482;2.332;2022-11-15T22:52:36;13.70;79.63
68842;SHT35;55849;48.482;2.332;2022-11-15T22:55:38;13.70;80.15
68842;SHT35;55849;48.482;2.332;2022-11-15T22:58:39;13.70;79.67
68842;SHT35;55849;48.482;2.332;2022-11-15T23:01:42;13.68;79.81
68842;SHT35;55849;48.482;2.332;2022-11-15T23:04:44;13.68;79.61
68842;SHT35;55849;48.482;2.332;2022-11-15T23:07:46;13.61;79.42
68842;SHT35;55849;48.482;2.332;2022-11-15T23:10:47;13.57;79.42
68842;SHT35;55849;48.482;2.332;2022-11-15T23:14:07;13.53;79.58
68842;SHT35;55849;48.482;2.332;2022-11-15T23:17:11;13.50;80.03
68842;SHT35;55849;48.482;2.332;2022-11-15T23:20:13;13.47;79.46
68842;SHT35;55849;48.482;2.332;2022-11-15T23:23:14;13.46;79.42
68842;SHT35;55849;48.482;2.332;2022-11-15T23:26:15;13.46;79.40
68842;SHT35;55849;48.482;2.332;2022-11-15T23:29:19;13.44;79.96
68842;SHT35;55849;48.482;2.332;2022-11-15T23:32:22;13.39;79.74
68842;SHT35;55849;48.482;2.332;2022-11-15T23:35:41;13.42;79.22
68842;SHT35;55849;48.482;2.332;2022-11-15T23:38:43;13.36;79.38
68842;SHT35;55849;48.482;2.332;2022-11-15T23:41:45;13.33;79.36
68842;SHT35;55849;48.482;2.332;2022-11-15T23:44:47;13.30;79.67
68842;SHT35;55849;48.482;2.332;2022-11-15T23:47:51;13.29;79.98
68842;SHT35;55849;48.482;2.332;2022-11-15T23:50:52;13.22;79.40
68842;SHT35;55849;48.482;2.332;2022-11-15T23:53:54;13.20;79.20
68842;SHT35;55849;48.482;2.332;2022-11-15T23:56:56;13.15;79.39
68842;SHT35;55849;48.482;2.332;2022-11-15T23:59:58;13.15;79.46
